TAF and METAR

METAR for Tozeur, Tunisia

DTTZ 011600Z 11011KT CAVOK 28/M01 Q1009 NOSIG
Report created 1. apr 18:00
wind 11 knots from ESE (110°) Clear sky Temperature 28° with dewpoint at -1° (Humidity 15.06%) Pressure 1009 hPa no significant weather change expected the next couple of hours

TAF for Tozeur, Tunisia

TAF DTTZ 011100Z 0112/0212 07007KT 9999 SCT030 BECMG 0112/0114 12011KT BECMG 0118/0120 09020G30KT
Report created 1. apr 13:00

between 1. apr 14:00 - 2. apr 14:00

wind 7 knots from ENE (070°) visibility > 10km scattered clouds (~50% cover) at 3000 feet

becoming between 1. apr 14:00 - 1. apr 16:00

wind 11 knots from ESE (120°)

becoming between 1. apr 20:00 - 1. apr 22:00

wind 20 knots from E (090°) with gusts up to 30 knots
Tozeur, Tunisia in Tunisia at 93m

Latest 5 airports